createdAt,value
2017-07-03T00:00:14.161Z,18.00
2017-07-03T00:02:42.418Z,18.00
2017-07-03T00:05:10.657Z,18.00
2017-07-03T00:07:39.050Z,17.90
2017-07-03T00:10:07.273Z,17.90
2017-07-03T00:12:35.524Z,17.90
2017-07-03T00:15:03.854Z,17.90
2017-07-03T00:17:32.105Z,18.00
2017-07-03T00:20:00.350Z,18.00
2017-07-03T00:22:28.621Z,18.00
2017-07-03T00:24:56.932Z,18.00
2017-07-03T00:27:25.190Z,18.00
2017-07-03T00:29:53.426Z,17.90
2017-07-03T00:32:22.444Z,18.00
2017-07-03T00:34:50.734Z,18.00
2017-07-03T00:37:18.988Z,18.00
2017-07-03T00:39:48.110Z,18.00
2017-07-03T00:42:16.369Z,18.00
2017-07-03T00:44:44.660Z,18.00
2017-07-03T00:47:12.918Z,18.00
2017-07-03T00:49:41.153Z,18.00
2017-07-03T00:52:09.403Z,18.00
2017-07-03T00:54:37.645Z,18.00
2017-07-03T00:57:05.891Z,17.90
2017-07-03T00:59:34.889Z,17.80
2017-07-03T01:02:03.921Z,17.80
2017-07-03T01:04:32.217Z,17.80
2017-07-03T01:07:00.449Z,17.80
2017-07-03T01:09:28.705Z,17.80
2017-07-03T01:11:57.715Z,17.70
2017-07-03T01:14:26.023Z,17.70
2017-07-03T01:16:54.267Z,17.60
2017-07-03T01:19:23.277Z,17.40
2017-07-03T01:21:51.560Z,17.40
2017-07-03T01:24:19.837Z,17.30
2017-07-03T01:26:48.194Z,17.20
2017-07-03T01:29:16.456Z,17.20
2017-07-03T01:31:44.697Z,17.10
2017-07-03T01:34:12.944Z,17.20
2017-07-03T01:36:41.218Z,17.10
2017-07-03T01:39:09.489Z,17.10
2017-07-03T01:41:37.768Z,17.10
2017-07-03T01:44:06.024Z,17.10
2017-07-03T01:46:34.352Z,17.10
2017-07-03T01:49:02.646Z,17.00
2017-07-03T01:51:30.877Z,17.00
2017-07-03T01:53:59.133Z,17.00
2017-07-03T01:56:27.532Z,17.00
2017-07-03T01:58:55.789Z,17.00
2017-07-03T02:01:24.137Z,16.90
2017-07-03T02:03:53.132Z,16.90
2017-07-03T02:06:22.264Z,16.90
2017-07-03T02:08:50.506Z,16.90
2017-07-03T02:11:19.590Z,16.90
2017-07-03T02:13:48.621Z,16.90
2017-07-03T02:16:16.873Z,16.80
2017-07-03T02:18:45.121Z,16.90
2017-07-03T02:21:13.384Z,16.90
2017-07-03T02:23:41.630Z,16.90
2017-07-03T02:26:09.887Z,16.90
2017-07-03T02:28:38.125Z,16.80
2017-07-03T02:31:07.322Z,16.70
2017-07-03T02:33:35.532Z,16.70
2017-07-03T02:36:03.785Z,16.70
2017-07-03T02:38:32.879Z,16.70
2017-07-03T02:41:01.925Z,16.70
2017-07-03T02:43:30.174Z,16.70
2017-07-03T02:45:58.463Z,16.70
2017-07-03T02:48:26.697Z,16.60
2017-07-03T02:50:55.720Z,16.50
2017-07-03T02:53:24.002Z,16.50
2017-07-03T02:55:53.076Z,16.50
2017-07-03T02:58:21.314Z,16.50
2017-07-03T03:00:49.577Z,16.50
2017-07-03T03:03:17.897Z,16.50
2017-07-03T03:05:46.135Z,16.40
2017-07-03T03:08:14.379Z,16.40
2017-07-03T03:10:42.685Z,16.30
2017-07-03T03:13:10.941Z,16.20
2017-07-03T03:15:39.174Z,16.20
2017-07-03T03:18:07.474Z,16.10
2017-07-03T03:20:35.760Z,16.00
2017-07-03T03:23:04.005Z,15.90
2017-07-03T03:25:32.338Z,15.90
2017-07-03T03:28:00.639Z,15.70
2017-07-03T03:30:28.840Z,15.60
2017-07-03T03:32:57.110Z,15.60
2017-07-03T03:35:25.362Z,15.60
2017-07-03T03:37:53.629Z,15.50
2017-07-03T03:40:21.878Z,15.50
2017-07-03T03:42:50.140Z,15.40
2017-07-03T03:45:18.373Z,15.40
2017-07-03T03:47:47.402Z,15.40
2017-07-03T03:50:15.635Z,15.30
2017-07-03T03:52:44.769Z,15.30
2017-07-03T03:55:13.016Z,15.30
2017-07-03T03:57:42.055Z,15.20
2017-07-03T04:00:10.322Z,15.20
2017-07-03T04:02:38.591Z,15.20
2017-07-03T04:05:06.836Z,15.20
2017-07-03T04:07:35.862Z,15.20
2017-07-03T04:10:04.096Z,15.20
2017-07-03T04:12:33.162Z,15.20
2017-07-03T04:15:01.422Z,15.20
2017-07-03T04:17:29.681Z,15.20
2017-07-03T04:19:57.973Z,15.30
2017-07-03T04:22:26.231Z,15.30
2017-07-03T04:24:54.570Z,15.40
2017-07-03T04:27:23.579Z,15.40
2017-07-03T04:29:51.905Z,15.40
2017-07-03T04:32:20.168Z,15.50
2017-07-03T04:34:48.393Z,15.50
2017-07-03T04:37:16.659Z,15.60
2017-07-03T04:39:45.798Z,15.70
2017-07-03T04:42:14.046Z,15.70
2017-07-03T04:44:42.297Z,15.70
2017-07-03T04:47:10.616Z,15.80
2017-07-03T04:49:38.870Z,15.90
2017-07-03T04:52:07.869Z,16.20
2017-07-03T04:54:36.135Z,16.20
2017-07-03T04:57:05.163Z,16.60
2017-07-03T04:59:33.410Z,16.60
2017-07-03T05:02:01.664Z,16.80
2017-07-03T05:04:30.689Z,17.20
2017-07-03T05:06:58.937Z,17.10
2017-07-03T05:09:27.972Z,17.80
2017-07-03T05:11:56.229Z,17.80
2017-07-03T05:14:24.480Z,18.30
2017-07-03T05:16:52.712Z,18.80
2017-07-03T05:19:20.965Z,19.30
2017-07-03T05:21:49.206Z,19.80
2017-07-03T05:24:18.318Z,20.50
2017-07-03T05:26:47.342Z,20.70
2017-07-03T05:29:15.577Z,20.70
2017-07-03T05:31:44.630Z,20.80
2017-07-03T05:34:12.909Z,20.70
2017-07-03T05:36:41.157Z,20.70
2017-07-03T05:39:09.417Z,20.70
2017-07-03T05:41:37.748Z,20.70
2017-07-03T05:44:11.661Z,20.80
2017-07-03T05:46:39.915Z,20.80
2017-07-03T05:49:08.173Z,20.90
2017-07-03T05:51:36.438Z,21.00
2017-07-03T05:54:04.676Z,21.00
2017-07-03T05:56:33.701Z,21.30
2017-07-03T05:59:01.948Z,21.30
2017-07-03T06:01:31.021Z,21.90
2017-07-03T06:03:59.276Z,21.90
2017-07-03T06:06:27.525Z,22.50
2017-07-03T06:08:55.780Z,23.00
2017-07-03T06:11:24.908Z,24.10
2017-07-03T06:13:53.204Z,24.10
2017-07-03T06:16:21.469Z,24.60
2017-07-03T06:18:50.328Z,25.00
2017-07-03T06:21:19.048Z,25.40
2017-07-03T06:23:47.446Z,25.80
2017-07-03T06:26:15.794Z,26.20
2017-07-03T06:28:44.086Z,26.60
2017-07-03T06:31:12.323Z,27.20
2017-07-03T06:33:40.620Z,27.50
2017-07-03T06:36:08.861Z,27.90
2017-07-03T06:38:37.890Z,28.60
2017-07-03T06:41:06.126Z,28.60
2017-07-03T06:43:35.176Z,29.30
2017-07-03T06:46:03.409Z,29.30
2017-07-03T06:48:31.679Z,29.20
2017-07-03T06:51:00.782Z,28.20
2017-07-03T06:53:29.043Z,28.20
2017-07-03T06:55:58.052Z,26.60
2017-07-03T06:58:26.314Z,26.60
2017-07-03T07:00:55.316Z,25.30
2017-07-03T07:03:24.334Z,24.50
2017-07-03T07:05:53.068Z,24.50
2017-07-03T07:08:22.904Z,24.10
2017-07-03T07:10:51.988Z,23.70
2017-07-03T07:13:20.774Z,23.40
2017-07-03T07:15:50.875Z,22.70
2017-07-03T07:18:19.969Z,22.70
2017-07-03T07:20:49.183Z,22.40
2017-07-03T07:23:19.085Z,21.90
2017-07-03T07:25:49.234Z,21.80
2017-07-03T07:28:19.213Z,21.60
2017-07-03T07:30:48.557Z,21.30
2017-07-03T07:33:16.799Z,21.30
2017-07-03T07:35:45.824Z,21.00
2017-07-03T07:38:14.138Z,21.00
2017-07-03T07:40:42.382Z,20.80
2017-07-03T07:43:10.625Z,20.80
2017-07-03T07:45:39.762Z,20.70
2017-07-03T07:48:08.015Z,20.60
2017-07-03T07:50:36.349Z,20.60
2017-07-03T07:53:04.603Z,20.50
2017-07-03T07:55:32.858Z,20.40
2017-07-03T07:58:01.221Z,20.30
2017-07-03T08:00:29.483Z,20.20
2017-07-03T08:02:58.458Z,20.10
2017-07-03T08:05:27.876Z,19.90
2017-07-03T08:07:56.957Z,19.90
2017-07-03T08:10:26.437Z,20.00
2017-07-03T08:12:55.245Z,20.10
2017-07-03T08:15:24.809Z,20.10
2017-07-03T08:17:54.357Z,20.30
2017-07-03T08:20:24.752Z,21.00
2017-07-03T08:22:53.813Z,21.70
2017-07-03T08:25:22.083Z,21.70
2017-07-03T08:27:50.399Z,22.20
2017-07-03T08:30:18.656Z,22.50
2017-07-03T08:32:46.901Z,22.90
2017-07-03T08:35:15.234Z,23.20
2017-07-03T08:37:43.588Z,23.30
2017-07-03T08:40:11.825Z,23.30
2017-07-03T08:42:40.849Z,23.70
2017-07-03T08:45:09.089Z,23.70
2017-07-03T08:47:38.887Z,23.70
2017-07-03T08:50:08.025Z,23.70
2017-07-03T08:52:37.895Z,23.90
2017-07-03T08:55:07.198Z,23.90
2017-07-03T08:57:36.085Z,23.90
2017-07-03T09:00:06.580Z,24.20
2017-07-03T09:02:35.401Z,24.10
2017-07-03T09:05:04.811Z,24.50
2017-07-03T09:07:33.160Z,24.50
2017-07-03T09:10:01.510Z,24.90
2017-07-03T09:12:29.765Z,25.30
2017-07-03T09:14:58.067Z,25.40
2017-07-03T09:17:26.348Z,25.70
2017-07-03T09:19:54.569Z,25.70
2017-07-03T09:22:22.817Z,25.80
2017-07-03T09:24:51.418Z,26.00
2017-07-03T09:27:21.041Z,26.20
2017-07-03T09:29:50.675Z,26.20
2017-07-03T09:32:18.956Z,25.70
2017-07-03T09:34:47.194Z,25.70
2017-07-03T09:37:16.218Z,25.70
2017-07-03T09:39:44.456Z,25.70
2017-07-03T09:42:13.508Z,26.40
2017-07-03T09:44:41.757Z,26.30
2017-07-03T09:47:09.994Z,26.50
2017-07-03T09:49:38.271Z,26.80
2017-07-03T09:52:06.510Z,27.10
2017-07-03T09:54:34.873Z,27.60
2017-07-03T09:57:03.170Z,28.10
2017-07-03T09:59:31.550Z,28.50
2017-07-03T10:01:59.768Z,28.40
2017-07-03T10:04:28.901Z,27.90
2017-07-03T10:06:57.157Z,27.80
2017-07-03T10:09:25.426Z,27.80
2017-07-03T10:11:54.422Z,28.10
2017-07-03T10:14:22.725Z,28.10
2017-07-03T10:16:50.961Z,28.10
2017-07-03T10:19:19.992Z,28.40
2017-07-03T10:21:48.226Z,28.40
2017-07-03T10:24:17.306Z,29.80
2017-07-03T10:26:45.515Z,29.80
2017-07-03T10:29:13.807Z,30.40
2017-07-03T10:31:42.048Z,30.10
2017-07-03T10:34:11.054Z,31.50
2017-07-03T10:36:39.293Z,31.40
2017-07-03T10:39:07.544Z,31.30
2017-07-03T10:41:35.780Z,31.70
2017-07-03T10:44:04.030Z,32.90
2017-07-03T10:46:33.044Z,34.50
2017-07-03T10:49:01.363Z,34.40
2017-07-03T10:51:29.662Z,34.40
2017-07-03T10:53:58.050Z,35.00
2017-07-03T10:56:26.277Z,36.10
2017-07-03T10:58:54.517Z,37.00
2017-07-03T11:01:23.645Z,37.30
2017-07-03T11:03:51.916Z,37.20
2017-07-03T11:06:20.241Z,37.70
2017-07-03T11:08:48.489Z,37.70
2017-07-03T11:11:16.812Z,37.90
2017-07-03T11:13:45.132Z,38.10
2017-07-03T11:16:13.379Z,37.70
2017-07-03T11:18:41.682Z,38.10
2017-07-03T11:21:09.933Z,37.60
2017-07-03T11:23:38.181Z,37.50
2017-07-03T11:26:06.441Z,37.20
2017-07-03T11:28:34.684Z,37.10
2017-07-03T11:31:03.062Z,36.60
2017-07-03T11:33:31.293Z,37.10
2017-07-03T11:36:00.356Z,36.80
2017-07-03T11:38:28.617Z,36.80
2017-07-03T11:40:56.865Z,35.90
2017-07-03T11:43:25.741Z,36.10
2017-07-03T11:45:54.044Z,35.60
2017-07-03T11:48:22.302Z,34.80
2017-07-03T11:50:50.549Z,33.60
2017-07-03T11:53:19.571Z,33.10
2017-07-03T11:55:47.802Z,33.10
2017-07-03T11:58:16.049Z,32.50
2017-07-03T12:00:44.285Z,32.10
2017-07-03T12:03:12.537Z,31.90
2017-07-03T12:05:41.733Z,30.30
2017-07-03T12:08:09.969Z,30.30
2017-07-03T12:10:38.204Z,30.10
2017-07-03T12:13:06.509Z,29.40
2017-07-03T12:15:34.823Z,29.00
2017-07-03T12:18:03.062Z,28.30
2017-07-03T12:20:31.301Z,27.70
2017-07-03T12:22:59.558Z,27.40
2017-07-03T12:25:28.613Z,27.40
2017-07-03T12:27:56.862Z,27.40
2017-07-03T12:30:25.149Z,27.00
2017-07-03T12:32:53.398Z,26.80
2017-07-03T12:35:21.697Z,26.60
2017-07-03T12:37:49.979Z,26.40
2017-07-03T12:40:18.213Z,26.50
2017-07-03T12:42:47.350Z,26.60
2017-07-03T12:45:15.621Z,26.60
2017-07-03T12:47:43.897Z,26.50
2017-07-03T12:50:12.154Z,26.30
2017-07-03T12:52:40.389Z,26.00
2017-07-03T12:55:08.634Z,25.90
2017-07-03T12:57:36.890Z,25.80
2017-07-03T13:00:05.138Z,25.90
2017-07-03T13:02:34.133Z,26.60
2017-07-03T13:05:02.388Z,26.70
2017-07-03T13:07:31.396Z,28.30
2017-07-03T13:10:00.424Z,29.10
2017-07-03T13:12:28.709Z,29.10
2017-07-03T13:14:57.074Z,29.30
2017-07-03T13:17:25.348Z,29.00
2017-07-03T13:19:53.638Z,28.30
2017-07-03T13:22:21.931Z,27.80
2017-07-03T13:24:50.182Z,27.50
2017-07-03T13:27:18.436Z,27.50
2017-07-03T13:29:46.732Z,27.10
2017-07-03T13:32:14.974Z,26.80
2017-07-03T13:34:43.994Z,26.50
2017-07-03T13:37:12.249Z,26.40
2017-07-03T13:39:41.374Z,26.30
2017-07-03T13:42:09.609Z,26.30
2017-07-03T13:44:38.628Z,26.30
2017-07-03T13:47:06.865Z,26.20
2017-07-03T13:49:35.195Z,26.30
2017-07-03T13:52:03.441Z,26.40
2017-07-03T13:54:31.692Z,26.30
2017-07-03T13:56:59.937Z,26.30
2017-07-03T13:59:28.176Z,26.30
2017-07-03T14:01:56.448Z,26.30
2017-07-03T14:04:25.441Z,26.00
2017-07-03T14:06:53.701Z,25.90
2017-07-03T14:09:22.715Z,25.70
2017-07-03T14:11:50.961Z,25.70
2017-07-03T14:14:20.048Z,25.50
2017-07-03T14:16:48.406Z,25.50
2017-07-03T14:19:16.637Z,25.60
2017-07-03T14:21:44.894Z,25.60
2017-07-03T14:24:13.197Z,25.70
2017-07-03T14:26:41.459Z,25.70
2017-07-03T14:29:09.695Z,25.70
2017-07-03T14:31:38.030Z,25.70
2017-07-03T14:34:06.302Z,25.80
2017-07-03T14:36:34.622Z,25.80
2017-07-03T14:39:02.857Z,25.80
2017-07-03T14:41:31.104Z,25.80
2017-07-03T14:43:59.348Z,25.80
2017-07-03T14:46:27.686Z,25.70
2017-07-03T14:48:55.961Z,25.60
2017-07-03T14:51:24.193Z,25.60
2017-07-03T14:53:53.330Z,25.40
2017-07-03T14:56:21.569Z,25.50
2017-07-03T14:58:50.580Z,25.50
2017-07-03T15:01:18.817Z,25.50
2017-07-03T15:03:47.063Z,25.50
2017-07-03T15:06:15.299Z,25.60
2017-07-03T15:08:43.622Z,25.60
2017-07-03T15:11:11.853Z,25.70
2017-07-03T15:13:40.115Z,25.70
2017-07-03T15:16:09.122Z,25.60
2017-07-03T15:18:37.426Z,25.50
2017-07-03T15:21:05.660Z,25.60
2017-07-03T15:23:33.917Z,25.30
2017-07-03T15:26:02.161Z,25.40
2017-07-03T15:28:30.400Z,25.40
2017-07-03T15:30:58.642Z,25.40
2017-07-03T15:33:26.886Z,25.40
2017-07-03T15:35:55.238Z,25.40
2017-07-03T15:38:23.498Z,25.40
2017-07-03T15:40:51.833Z,25.40
2017-07-03T15:43:20.094Z,25.40
2017-07-03T15:45:48.325Z,25.30
2017-07-03T15:48:16.595Z,25.40
2017-07-03T15:50:44.829Z,25.50
2017-07-03T15:53:13.064Z,25.60
2017-07-03T15:55:41.325Z,25.60
2017-07-03T15:58:09.556Z,25.70
2017-07-03T16:00:37.805Z,25.70
2017-07-03T16:03:06.426Z,25.60
2017-07-03T16:05:36.593Z,25.50
2017-07-03T16:08:04.872Z,25.50
2017-07-03T16:10:34.553Z,25.50
2017-07-03T16:13:03.970Z,25.40
2017-07-03T16:15:32.970Z,25.40
2017-07-03T16:18:01.604Z,25.40
2017-07-03T16:20:29.860Z,25.30
2017-07-03T16:22:58.101Z,25.30
2017-07-03T16:25:26.378Z,25.30
2017-07-03T16:27:54.616Z,25.30
2017-07-03T16:30:23.767Z,25.30
2017-07-03T16:32:52.153Z,25.30
2017-07-03T16:35:20.684Z,25.40
2017-07-03T16:37:49.004Z,25.40
2017-07-03T16:40:17.605Z,25.50
2017-07-03T16:42:45.854Z,25.50
2017-07-03T16:45:14.121Z,25.60
2017-07-03T16:47:42.395Z,25.50
2017-07-03T16:50:10.645Z,25.60
2017-07-03T16:52:38.973Z,25.50
2017-07-03T16:55:07.226Z,25.50
2017-07-03T16:57:35.504Z,25.40
2017-07-03T17:00:03.833Z,25.40
2017-07-03T17:02:32.922Z,25.50
2017-07-03T17:05:01.158Z,25.40
2017-07-03T17:07:29.481Z,25.50
2017-07-03T17:09:58.627Z,25.30
2017-07-03T17:12:26.872Z,25.40
2017-07-03T17:14:55.114Z,25.40
2017-07-03T17:17:23.429Z,25.30
2017-07-03T17:19:53.430Z,25.30
2017-07-03T17:22:22.510Z,25.30
2017-07-03T17:24:51.496Z,25.20
2017-07-03T17:27:20.282Z,25.20
2017-07-03T17:29:49.581Z,25.30
2017-07-03T17:32:19.021Z,25.30
2017-07-03T17:34:47.869Z,25.20
2017-07-03T17:37:17.992Z,25.30
2017-07-03T17:39:46.274Z,25.30
2017-07-03T17:42:15.293Z,25.30
2017-07-03T17:44:43.598Z,25.30
2017-07-03T17:47:11.850Z,25.20
2017-07-03T17:49:40.089Z,25.20
2017-07-03T17:52:08.329Z,25.30
2017-07-03T17:54:36.648Z,25.20
2017-07-03T17:57:06.041Z,25.00
2017-07-03T17:59:34.297Z,25.00
2017-07-03T18:02:02.576Z,25.00
2017-07-03T18:04:31.137Z,24.90
2017-07-03T18:06:59.605Z,24.90
2017-07-03T18:09:28.134Z,24.90
2017-07-03T18:11:57.192Z,24.80
2017-07-03T18:14:26.242Z,24.80
2017-07-03T18:16:55.354Z,24.60
2017-07-03T18:19:23.603Z,24.70
2017-07-03T18:21:52.610Z,24.70
2017-07-03T18:24:20.883Z,24.70
2017-07-03T18:26:49.946Z,24.70
2017-07-03T18:29:18.186Z,24.70
2017-07-03T18:31:46.521Z,24.60
2017-07-03T18:34:15.535Z,24.50
2017-07-03T18:36:43.844Z,24.50
2017-07-03T18:39:12.089Z,24.50
2017-07-03T18:41:40.385Z,24.50
2017-07-03T18:44:08.637Z,24.40
2017-07-03T18:46:36.873Z,24.30
2017-07-03T18:49:05.207Z,24.30
2017-07-03T18:51:33.686Z,24.20
2017-07-03T18:54:02.010Z,24.10
2017-07-03T18:56:31.065Z,24.10
2017-07-03T18:58:59.313Z,24.10
2017-07-03T19:01:27.560Z,24.10
2017-07-03T19:03:56.698Z,24.10
2017-07-03T19:06:24.936Z,24.00
2017-07-03T19:08:53.953Z,24.00
2017-07-03T19:11:22.201Z,23.90
2017-07-03T19:13:51.233Z,23.80
2017-07-03T19:16:20.069Z,23.70
2017-07-03T19:18:48.600Z,23.60
2017-07-03T19:21:16.927Z,23.60
2017-07-03T19:23:45.217Z,23.50
2017-07-03T19:26:14.239Z,23.40
2017-07-03T19:28:42.533Z,23.40
2017-07-03T19:31:10.850Z,23.40
2017-07-03T19:33:39.084Z,23.40
2017-07-03T19:36:07.362Z,23.30
2017-07-03T19:38:35.596Z,23.30
2017-07-03T19:41:03.917Z,23.40
2017-07-03T19:43:32.237Z,23.40
2017-07-03T19:46:00.608Z,23.40
2017-07-03T19:48:29.726Z,23.40
2017-07-03T19:50:58.810Z,23.50
2017-07-03T19:53:27.953Z,23.50
2017-07-03T19:55:56.208Z,23.40
2017-07-03T19:58:24.464Z,23.40
2017-07-03T20:00:53.540Z,23.40
2017-07-03T20:03:21.928Z,23.40
2017-07-03T20:05:50.186Z,23.40
2017-07-03T20:08:18.418Z,23.30
2017-07-03T20:10:46.682Z,23.30
2017-07-03T20:13:14.969Z,23.30
2017-07-03T20:15:43.231Z,23.30
2017-07-03T20:18:11.583Z,23.20
2017-07-03T20:20:39.852Z,23.30
2017-07-03T20:23:08.176Z,23.20
2017-07-03T20:25:36.410Z,23.20
2017-07-03T20:28:05.610Z,23.10
2017-07-03T20:30:33.944Z,23.00
2017-07-03T20:33:02.253Z,23.00
2017-07-03T20:35:30.473Z,22.90
2017-07-03T20:37:58.745Z,22.90
2017-07-03T20:40:26.993Z,22.90
2017-07-03T20:42:56.038Z,22.80
2017-07-03T20:45:24.249Z,22.70
2017-07-03T20:47:53.274Z,22.70
2017-07-03T20:50:21.506Z,22.70
2017-07-03T20:52:49.767Z,22.60
2017-07-03T20:55:17.993Z,22.60
2017-07-03T20:57:46.245Z,22.50
2017-07-03T21:00:15.242Z,22.50
2017-07-03T21:02:44.257Z,22.60
2017-07-03T21:05:13.002Z,22.60
2017-07-03T21:07:41.366Z,22.60
2017-07-03T21:10:10.065Z,22.60
2017-07-03T21:12:39.172Z,22.60
2017-07-03T21:15:08.049Z,22.60
2017-07-03T21:17:38.324Z,22.60
2017-07-03T21:20:07.578Z,22.60
2017-07-03T21:22:37.548Z,22.60
2017-07-03T21:25:06.918Z,22.60
2017-07-03T21:27:35.209Z,22.60
2017-07-03T21:30:03.462Z,22.50
2017-07-03T21:32:32.441Z,22.50
2017-07-03T21:35:01.459Z,22.50
2017-07-03T21:37:30.318Z,22.50
2017-07-03T21:39:58.641Z,22.40
2017-07-03T21:42:26.888Z,22.40
2017-07-03T21:44:56.013Z,22.20
2017-07-03T21:47:24.292Z,22.20
2017-07-03T21:49:52.594Z,22.20
2017-07-03T21:52:20.830Z,22.20
2017-07-03T21:54:49.115Z,22.10
2017-07-03T21:57:17.348Z,22.00
2017-07-03T21:59:46.371Z,21.90
2017-07-03T22:02:14.603Z,21.90
2017-07-03T22:04:43.654Z,21.80
2017-07-03T22:07:11.893Z,21.80
2017-07-03T22:09:40.915Z,21.80
2017-07-03T22:12:09.146Z,21.80
2017-07-03T22:14:37.396Z,21.80
2017-07-03T22:17:05.754Z,21.80
2017-07-03T22:19:34.014Z,21.80
2017-07-03T22:22:02.304Z,21.80
2017-07-03T22:24:30.553Z,21.70
2017-07-03T22:26:58.796Z,21.80
2017-07-03T22:29:27.067Z,21.80
2017-07-03T22:31:55.302Z,21.70
2017-07-03T22:34:23.566Z,21.80
2017-07-03T22:36:51.862Z,21.80
2017-07-03T22:39:20.089Z,21.70
2017-07-03T22:41:49.118Z,21.60
2017-07-03T22:44:17.360Z,21.60
2017-07-03T22:46:46.382Z,21.60
2017-07-03T22:49:14.680Z,21.60
2017-07-03T22:51:42.928Z,21.60
2017-07-03T22:54:11.257Z,21.60
2017-07-03T22:56:39.507Z,21.60
2017-07-03T22:59:07.745Z,21.50
2017-07-03T23:01:35.996Z,21.50
2017-07-03T23:04:04.988Z,21.50
2017-07-03T23:06:34.341Z,21.40
2017-07-03T23:09:02.581Z,21.40
2017-07-03T23:11:30.842Z,21.50
2017-07-03T23:13:59.866Z,21.50
2017-07-03T23:16:28.175Z,21.50
2017-07-03T23:18:56.533Z,21.50
2017-07-03T23:21:24.805Z,21.50
2017-07-03T23:23:53.144Z,21.50
2017-07-03T23:26:22.170Z,21.50
2017-07-03T23:28:50.470Z,21.50
2017-07-03T23:31:19.444Z,21.50
2017-07-03T23:33:47.746Z,21.50
2017-07-03T23:36:15.998Z,21.50
2017-07-03T23:38:44.245Z,21.40
2017-07-03T23:41:13.296Z,21.40
2017-07-03T23:43:41.533Z,21.40
2017-07-03T23:46:09.889Z,21.30
2017-07-03T23:48:38.139Z,21.40
2017-07-03T23:51:06.466Z,21.30
2017-07-03T23:53:34.721Z,21.20
2017-07-03T23:56:02.965Z,21.20
2017-07-03T23:58:32.030Z,21.10
